createdAt,value
2019-04-26T00:00:47.086Z,0.10
2019-04-26T00:03:17.256Z,0.10
2019-04-26T00:05:45.811Z,0.20
2019-04-26T00:08:14.353Z,0.20
2019-04-26T00:10:56.551Z,0.20
2019-04-26T00:13:33.089Z,0.20
2019-04-26T00:16:10.143Z,0.10
2019-04-26T00:18:39.591Z,0.20
2019-04-26T00:21:08.088Z,0.20
2019-04-26T00:23:36.717Z,0.20
2019-04-26T00:26:05.550Z,0.30
2019-04-26T00:28:34.003Z,0.20
2019-04-26T00:31:02.791Z,0.20
2019-04-26T00:33:31.253Z,0.20
2019-04-26T00:35:59.787Z,0.10
2019-04-26T00:38:28.653Z,0.23
2019-04-26T00:40:58.791Z,0.20
2019-04-26T00:43:27.325Z,0.20
2019-04-26T00:45:57.152Z,0.20
2019-04-26T00:48:27.227Z,0.20
2019-04-26T00:50:56.840Z,0.30
2019-04-26T00:53:28.462Z,0.20
2019-04-26T00:55:58.463Z,0.20
2019-04-26T00:58:27.769Z,0.10
2019-04-26T01:00:56.317Z,0.20
2019-04-26T01:03:25.070Z,0.20
2019-04-26T01:06:00.142Z,0.20
2019-04-26T01:08:25.542Z,0.20
2019-04-26T01:10:54.032Z,0.20
2019-04-26T01:13:22.764Z,0.30
2019-04-26T01:15:51.252Z,0.20
2019-04-26T01:18:20.184Z,0.10
2019-04-26T01:20:51.348Z,0.30
2019-04-26T01:23:21.147Z,0.20
2019-04-26T01:26:07.670Z,0.23
2019-04-26T01:28:42.147Z,0.10
2019-04-26T01:31:12.259Z,0.20
2019-04-26T01:33:41.919Z,0.20
2019-04-26T01:36:13.062Z,0.27
2019-04-26T01:38:42.047Z,0.13
2019-04-26T01:41:13.975Z,0.10
2019-04-26T01:44:01.870Z,0.10
2019-04-26T01:46:35.333Z,0.10
2019-04-26T01:49:09.743Z,0.10
2019-04-26T01:51:53.326Z,0.10
2019-04-26T01:54:25.758Z,0.23
2019-04-26T01:56:57.521Z,0.10
2019-04-26T01:59:27.351Z,0.20
2019-04-26T02:02:03.819Z,0.10
2019-04-26T02:04:34.566Z,0.30
2019-04-26T02:07:03.530Z,0.10
2019-04-26T02:09:32.746Z,0.20
2019-04-26T02:12:02.277Z,0.10
2019-04-26T02:14:31.148Z,0.20
2019-04-26T02:17:01.392Z,0.13
2019-04-26T02:19:30.236Z,0.20
2019-04-26T02:22:03.680Z,0.20
2019-04-26T02:24:34.394Z,0.10
2019-04-26T02:27:04.551Z,0.23
2019-04-26T02:29:33.156Z,0.10
2019-04-26T02:32:05.150Z,0.20
2019-04-26T02:34:37.160Z,0.17
2019-04-26T02:37:07.277Z,0.20
2019-04-26T02:39:38.816Z,0.27
2019-04-26T02:42:10.363Z,0.20
2019-04-26T02:44:43.600Z,0.20
2019-04-26T02:47:33.183Z,0.20
2019-04-26T02:50:09.472Z,0.10
2019-04-26T02:52:41.441Z,0.30
2019-04-26T02:55:36.897Z,0.20
2019-04-26T02:58:03.612Z,0.10
2019-04-26T03:00:33.955Z,0.33
2019-04-26T03:03:05.615Z,0.20
2019-04-26T03:05:37.633Z,0.20
2019-04-26T03:08:09.861Z,0.20
2019-04-26T03:10:41.336Z,0.30
2019-04-26T03:13:14.606Z,0.30
2019-04-26T03:15:50.972Z,0.60
2019-04-26T03:18:34.605Z,0.40
2019-04-26T03:21:31.969Z,0.40
2019-04-26T03:24:12.391Z,0.40
2019-04-26T03:26:43.935Z,0.77
2019-04-26T03:29:21.307Z,0.50
2019-04-26T03:31:54.721Z,0.30
2019-04-26T03:34:39.287Z,0.50
2019-04-26T03:37:21.690Z,1.73
2019-04-26T03:40:04.006Z,0.40
2019-04-26T03:42:52.114Z,0.60
2019-04-26T03:45:40.762Z,0.70
2019-04-26T03:48:19.695Z,0.60
2019-04-26T03:50:53.770Z,0.50
2019-04-26T03:53:28.309Z,0.40
2019-04-26T03:55:59.860Z,0.80
2019-04-26T03:58:59.564Z,0.50
2019-04-26T04:01:33.038Z,0.43
2019-04-26T04:04:21.107Z,0.40
2019-04-26T04:07:03.311Z,0.30
2019-04-26T04:09:24.064Z,0.50
2019-04-26T04:12:12.391Z,0.30
2019-04-26T04:14:53.122Z,0.20
2019-04-26T04:17:32.157Z,0.23
2019-04-26T04:20:20.335Z,0.30
2019-04-26T04:23:10.001Z,0.30
2019-04-26T04:25:49.693Z,0.40
2019-04-26T04:28:24.367Z,0.10
2019-04-26T04:31:18.521Z,0.10
2019-04-26T04:33:50.088Z,0.10
2019-04-26T04:36:24.655Z,0.17
2019-04-26T04:39:13.010Z,0.20
2019-04-26T04:42:06.642Z,0.20
2019-04-26T04:45:03.442Z,0.20
2019-04-26T04:47:42.645Z,0.20
2019-04-26T04:50:29.149Z,0.17
2019-04-26T04:53:09.526Z,0.10
2019-04-26T04:55:47.886Z,0.10
2019-04-26T04:58:22.664Z,0.10
2019-04-26T05:01:01.779Z,0.20
2019-04-26T05:03:57.536Z,0.10
2019-04-26T05:06:54.888Z,0.10
2019-04-26T05:09:29.366Z,0.10
2019-04-26T05:12:28.549Z,0.20
2019-04-26T05:15:14.152Z,0.10
2019-04-26T05:18:08.173Z,0.10
2019-04-26T05:20:42.738Z,0.10
2019-04-26T05:23:37.088Z,0.20
2019-04-26T05:26:28.597Z,0.20
2019-04-26T05:29:27.346Z,0.20
2019-04-26T05:31:58.878Z,0.10
2019-04-26T05:34:59.345Z,0.10
2019-04-26T05:37:39.866Z,0.20
2019-04-26T05:40:26.481Z,0.10
2019-04-26T05:43:16.274Z,0.10
2019-04-26T05:45:56.083Z,0.10
2019-04-26T05:48:55.701Z,0.20
2019-04-26T05:51:57.943Z,0.10
2019-04-26T05:54:51.145Z,0.10
2019-04-26T05:57:43.548Z,0.17
2019-04-26T06:00:32.930Z,0.10
2019-04-26T06:03:45.783Z,0.10
2019-04-26T06:06:31.023Z,0.20
2019-04-26T06:09:38.372Z,0.20
2019-04-26T06:12:30.096Z,0.20
2019-04-26T06:15:28.454Z,0.10
2019-04-26T06:18:13.699Z,0.30
2019-04-26T06:20:48.001Z,0.20
2019-04-26T06:23:28.157Z,1.40
2019-04-26T06:26:07.228Z,0.20
2019-04-26T06:28:47.748Z,0.20
2019-04-26T06:31:31.468Z,0.10
2019-04-26T06:34:03.108Z,0.20
2019-04-26T06:36:36.371Z,0.60
2019-04-26T06:39:18.125Z,0.50
2019-04-26T06:42:06.265Z,1.40
2019-04-26T06:45:09.225Z,0.60
2019-04-26T06:48:15.612Z,0.77
2019-04-26T06:50:53.201Z,3.10
2019-04-26T06:53:24.729Z,3.13
2019-04-26T06:56:05.004Z,2.40
2019-04-26T06:58:39.489Z,1.07
2019-04-26T07:01:27.128Z,0.40
2019-04-26T07:03:59.647Z,0.50
2019-04-26T07:06:40.463Z,1.73
2019-04-26T07:09:11.774Z,1.20
2019-04-26T07:12:07.198Z,1.67
2019-04-26T07:14:55.576Z,1.07
2019-04-26T07:17:42.291Z,0.93
2019-04-26T07:20:14.920Z,0.70
2019-04-26T07:23:19.792Z,0.43
2019-04-26T07:25:52.973Z,0.70
2019-04-26T07:28:30.486Z,0.60
2019-04-26T07:31:14.038Z,0.70
2019-04-26T07:33:59.136Z,1.83
2019-04-26T07:37:04.666Z,1.90
2019-04-26T07:39:53.088Z,1.43
2019-04-26T07:42:46.168Z,2.00
2019-04-26T07:45:49.790Z,6.00
2019-04-26T07:48:36.375Z,3.60
2019-04-26T07:51:33.580Z,2.63
2019-04-26T07:54:24.940Z,1.87
2019-04-26T07:57:19.475Z,2.43
2019-04-26T08:00:15.792Z,1.83
2019-04-26T08:02:49.066Z,0.80
2019-04-26T08:05:22.284Z,2.77
2019-04-26T08:07:57.017Z,7.10
2019-04-26T08:10:28.191Z,2.80
2019-04-26T08:13:08.346Z,2.73
2019-04-26T08:15:44.594Z,2.03
2019-04-26T08:18:16.752Z,0.50
2019-04-26T08:20:52.474Z,0.40
2019-04-26T08:23:39.298Z,0.70
2019-04-26T08:25:57.619Z,0.77
2019-04-26T08:28:28.262Z,1.17
2019-04-26T08:30:59.196Z,1.20
2019-04-26T08:33:34.428Z,0.30
2019-04-26T08:36:06.079Z,0.67
2019-04-26T08:38:37.529Z,0.50
2019-04-26T08:41:08.153Z,0.20
2019-04-26T08:43:56.067Z,0.10
2019-04-26T08:46:36.159Z,0.10
2019-04-26T08:49:39.114Z,0.37
2019-04-26T08:52:14.601Z,0.23
2019-04-26T08:54:45.182Z,0.20
2019-04-26T08:57:15.502Z,0.20
2019-04-26T08:59:47.103Z,0.10
2019-04-26T09:02:36.742Z,0.20
2019-04-26T09:05:11.836Z,0.10
2019-04-26T09:07:43.494Z,0.20
2019-04-26T09:10:15.024Z,0.10
2019-04-26T09:12:46.268Z,0.20
2019-04-26T09:15:17.779Z,0.20
2019-04-26T09:17:46.268Z,0.13
2019-04-26T09:20:22.442Z,0.10
2019-04-26T09:23:04.823Z,0.10
2019-04-26T09:25:39.033Z,0.37
2019-04-26T09:28:13.403Z,0.30
2019-04-26T09:30:47.441Z,0.60
2019-04-26T09:33:15.443Z,1.00
2019-04-26T09:35:44.025Z,1.10
2019-04-26T09:38:12.583Z,1.10
2019-04-26T09:40:41.110Z,1.30
2019-04-26T09:43:14.975Z,0.87
2019-04-26T09:45:48.100Z,0.60
2019-04-26T09:48:18.604Z,0.50
2019-04-26T09:50:48.717Z,0.70
2019-04-26T09:53:17.768Z,0.77
2019-04-26T09:55:46.219Z,1.10
2019-04-26T09:58:14.669Z,0.80
2019-04-26T10:00:48.344Z,0.57
2019-04-26T10:03:14.670Z,0.50
2019-04-26T10:05:43.283Z,0.60
2019-04-26T10:08:13.007Z,0.20
2019-04-26T10:10:42.259Z,0.60
2019-04-26T10:13:21.031Z,0.60
2019-04-26T10:15:53.968Z,0.70
2019-04-26T10:18:24.476Z,0.77
2019-04-26T10:20:52.855Z,0.50
2019-04-26T10:23:21.661Z,0.43
2019-04-26T10:25:51.994Z,0.60
2019-04-26T10:28:20.451Z,0.37
2019-04-26T10:31:13.512Z,0.40
2019-04-26T10:33:42.168Z,0.40
2019-04-26T10:36:10.802Z,0.57
2019-04-26T10:38:39.327Z,0.60
2019-04-26T10:41:08.132Z,0.50
2019-04-26T10:43:37.050Z,0.30
2019-04-26T10:46:07.478Z,0.50
2019-04-26T10:48:35.923Z,0.20
2019-04-26T10:51:07.463Z,0.20
2019-04-26T10:53:45.579Z,0.57
2019-04-26T10:56:24.184Z,0.50
2019-04-26T10:58:53.619Z,1.40
2019-04-26T11:01:22.341Z,0.80
2019-04-26T11:03:50.882Z,0.90
2019-04-26T11:06:19.336Z,1.10
2019-04-26T11:08:47.790Z,1.37
2019-04-26T11:11:16.685Z,1.90
2019-04-26T11:13:45.142Z,2.07
2019-04-26T11:16:13.660Z,1.40
2019-04-26T11:18:42.211Z,1.57
2019-04-26T11:21:10.748Z,1.60
2019-04-26T11:23:41.077Z,1.80
2019-04-26T11:26:10.615Z,2.40
2019-04-26T11:28:39.076Z,1.93
2019-04-26T11:31:07.534Z,1.77
2019-04-26T11:33:44.644Z,1.53
2019-04-26T11:36:07.409Z,1.20
2019-04-26T11:38:37.207Z,0.90
2019-04-26T11:41:06.909Z,1.00
2019-04-26T11:43:35.673Z,0.90
2019-04-26T11:46:05.002Z,0.90
2019-04-26T11:48:34.013Z,1.77
2019-04-26T11:51:02.476Z,1.33
2019-04-26T11:53:33.314Z,1.23
2019-04-26T11:56:04.436Z,1.07
2019-04-26T11:58:32.042Z,0.70
2019-04-26T12:01:02.268Z,0.70
2019-04-26T12:03:30.826Z,0.63
2019-04-26T12:06:00.999Z,0.40
2019-04-26T12:08:49.493Z,0.30
2019-04-26T12:11:19.774Z,0.30
2019-04-26T12:13:48.159Z,0.30
2019-04-26T12:16:18.674Z,0.30
2019-04-26T12:18:46.840Z,0.20
2019-04-26T12:21:15.397Z,0.20
2019-04-26T12:23:43.837Z,0.30
2019-04-26T12:26:12.362Z,0.43
2019-04-26T12:28:41.361Z,0.50
2019-04-26T12:31:09.957Z,0.37
2019-04-26T12:33:39.105Z,0.70
2019-04-26T12:36:09.626Z,0.47
2019-04-26T12:38:39.222Z,0.40
2019-04-26T12:41:07.773Z,0.30
2019-04-26T12:43:36.541Z,0.60
2019-04-26T12:46:27.185Z,0.47
2019-04-26T12:48:53.404Z,0.37
2019-04-26T12:51:22.263Z,0.30
2019-04-26T12:53:50.741Z,0.40
2019-04-26T12:56:19.199Z,0.20
2019-04-26T12:58:51.368Z,0.30
2019-04-26T13:01:20.083Z,0.27
2019-04-26T13:04:05.760Z,0.40
2019-04-26T13:06:39.467Z,0.27
2019-04-26T13:09:10.996Z,0.40
2019-04-26T13:11:52.793Z,1.40
2019-04-26T13:14:25.896Z,4.13
2019-04-26T13:16:57.249Z,8.60
2019-04-26T13:19:25.854Z,2.30
2019-04-26T13:21:54.313Z,1.53
2019-04-26T13:24:23.057Z,4.67
2019-04-26T13:26:51.886Z,5.13
2019-04-26T13:29:20.671Z,3.43
2019-04-26T13:31:49.467Z,2.27
2019-04-26T13:34:17.995Z,1.30
2019-04-26T13:36:46.447Z,0.83
2019-04-26T13:39:17.849Z,0.97
2019-04-26T13:41:45.139Z,0.80
2019-04-26T13:44:13.599Z,0.87
2019-04-26T13:46:49.663Z,0.30
2019-04-26T13:49:20.091Z,0.40
2019-04-26T13:51:48.623Z,0.40
2019-04-26T13:54:21.113Z,0.50
2019-04-26T13:56:47.287Z,0.40
2019-04-26T13:59:15.903Z,0.20
2019-04-26T14:01:44.362Z,0.40
2019-04-26T14:04:12.835Z,0.40
2019-04-26T14:06:41.379Z,2.27
2019-04-26T14:09:11.481Z,0.50
2019-04-26T14:11:39.939Z,0.43
2019-04-26T14:14:08.490Z,0.90
2019-04-26T14:16:37.479Z,1.00
2019-04-26T14:19:06.091Z,0.40
2019-04-26T14:21:34.931Z,0.27
2019-04-26T14:24:10.995Z,0.20
2019-04-26T14:26:41.627Z,0.50
2019-04-26T14:29:10.153Z,0.50
2019-04-26T14:31:38.685Z,0.30
2019-04-26T14:34:07.234Z,0.30
2019-04-26T14:36:36.078Z,0.20
2019-04-26T14:39:10.540Z,0.33
2019-04-26T14:41:38.058Z,0.37
2019-04-26T14:44:15.384Z,0.50
2019-04-26T14:46:48.180Z,0.40
2019-04-26T14:49:07.047Z,0.60
2019-04-26T14:51:35.991Z,0.40
2019-04-26T14:54:07.347Z,0.40
2019-04-26T14:56:35.020Z,0.40
2019-04-26T14:59:08.151Z,0.40
2019-04-26T15:01:52.278Z,0.50
2019-04-26T15:04:39.120Z,0.30
2019-04-26T15:07:08.029Z,0.30
2019-04-26T15:09:36.818Z,0.40
2019-04-26T15:12:07.743Z,0.40
2019-04-26T15:14:36.062Z,0.30
2019-04-26T15:17:04.560Z,0.30
2019-04-26T15:19:35.172Z,0.30
2019-04-26T15:22:10.134Z,0.40
2019-04-26T15:25:13.420Z,0.47
2019-04-26T15:27:42.132Z,0.40
2019-04-26T15:30:13.321Z,0.33
2019-04-26T15:32:42.661Z,0.47
2019-04-26T15:35:15.665Z,0.27
2019-04-26T15:37:42.263Z,0.40
2019-04-26T15:40:16.182Z,0.50
2019-04-26T15:42:58.734Z,0.30
2019-04-26T15:45:38.761Z,0.30
2019-04-26T15:48:24.652Z,0.43
2019-04-26T15:50:54.873Z,0.70
2019-04-26T15:53:23.957Z,0.30
2019-04-26T15:55:53.105Z,0.37
2019-04-26T15:58:21.628Z,0.40
2019-04-26T16:00:50.686Z,0.50
2019-04-26T16:03:19.172Z,0.60
2019-04-26T16:05:47.697Z,0.67
2019-04-26T16:08:16.152Z,0.40
2019-04-26T16:10:44.636Z,0.30
2019-04-26T16:13:20.905Z,0.20
2019-04-26T16:15:48.639Z,0.30
2019-04-26T16:18:17.091Z,0.40
2019-04-26T16:20:44.513Z,0.40
2019-04-26T16:23:13.602Z,0.43
2019-04-26T16:25:42.802Z,0.30
2019-04-26T16:28:30.659Z,0.90
2019-04-26T16:31:16.551Z,0.30
2019-04-26T16:33:46.673Z,0.40
2019-04-26T16:36:15.487Z,0.30
2019-04-26T16:38:43.976Z,0.30
2019-04-26T16:41:12.442Z,1.40
2019-04-26T16:43:52.243Z,2.70
2019-04-26T16:46:14.758Z,2.07
2019-04-26T16:48:44.195Z,1.87
2019-04-26T16:51:14.253Z,1.13
2019-04-26T16:54:02.131Z,0.70
2019-04-26T16:56:12.659Z,0.30
2019-04-26T16:58:44.916Z,0.40
2019-04-26T17:01:12.400Z,0.40
2019-04-26T17:03:45.197Z,0.50
2019-04-26T17:06:14.294Z,0.30
2019-04-26T17:08:49.188Z,0.50
2019-04-26T17:11:14.067Z,0.30
2019-04-26T17:13:49.255Z,0.40
2019-04-26T17:16:12.886Z,0.30
2019-04-26T17:18:42.660Z,0.30
2019-04-26T17:21:12.748Z,0.40
2019-04-26T17:23:46.033Z,0.50
2019-04-26T17:26:16.552Z,0.30
2019-04-26T17:28:45.243Z,0.30
2019-04-26T17:31:13.796Z,0.30
2019-04-26T17:33:42.615Z,0.43
2019-04-26T17:36:15.244Z,0.30
2019-04-26T17:38:42.075Z,0.50
2019-04-26T17:41:13.393Z,0.30
2019-04-26T17:43:46.877Z,0.27
2019-04-26T17:46:14.657Z,0.30
2019-04-26T17:48:44.795Z,0.30
2019-04-26T17:51:18.444Z,0.30
2019-04-26T17:53:43.970Z,0.33
2019-04-26T17:56:13.427Z,0.40
2019-04-26T17:58:51.250Z,0.37
2019-04-26T18:01:29.310Z,0.60
2019-04-26T18:03:50.713Z,0.60
2019-04-26T18:06:15.280Z,0.50
2019-04-26T18:08:51.937Z,0.60
2019-04-26T18:11:19.561Z,0.40
2019-04-26T18:13:47.178Z,0.30
2019-04-26T18:16:17.753Z,0.30
2019-04-26T18:18:53.945Z,0.40
2019-04-26T18:21:35.013Z,0.30
2019-04-26T18:24:03.708Z,0.30
2019-04-26T18:26:32.789Z,0.30
2019-04-26T18:29:01.616Z,0.20
2019-04-26T18:31:30.407Z,0.20
2019-04-26T18:34:00.586Z,0.40
2019-04-26T18:36:32.074Z,0.57
2019-04-26T18:38:59.443Z,0.57
2019-04-26T18:41:28.956Z,0.40
2019-04-26T18:43:59.911Z,0.63
2019-04-26T18:46:35.678Z,0.37
2019-04-26T18:49:04.394Z,0.30
2019-04-26T18:51:33.462Z,0.50
2019-04-26T18:54:05.083Z,0.67
2019-04-26T18:56:39.635Z,0.60
2019-04-26T18:59:07.388Z,0.60
2019-04-26T19:01:40.654Z,0.50
2019-04-26T19:04:12.492Z,0.50
2019-04-26T19:06:37.970Z,0.60
2019-04-26T19:09:08.141Z,0.60
2019-04-26T19:11:37.029Z,0.50
2019-04-26T19:14:16.054Z,0.40
2019-04-26T19:16:50.637Z,0.43
2019-04-26T19:19:25.968Z,0.70
2019-04-26T19:21:55.739Z,0.40
2019-04-26T19:24:24.332Z,0.57
2019-04-26T19:26:53.204Z,0.50
2019-04-26T19:29:29.314Z,0.60
2019-04-26T19:31:52.383Z,1.20
2019-04-26T19:34:21.907Z,1.23
2019-04-26T19:36:52.351Z,1.00
2019-04-26T19:39:30.445Z,0.70
2019-04-26T19:41:57.484Z,0.80
2019-04-26T19:44:24.056Z,0.77
2019-04-26T19:47:06.531Z,0.77
2019-04-26T19:49:52.430Z,0.70
2019-04-26T19:52:39.620Z,0.73
2019-04-26T19:55:17.441Z,0.60
2019-04-26T19:57:54.054Z,0.60
2019-04-26T20:00:22.578Z,0.60
2019-04-26T20:02:52.323Z,0.70
2019-04-26T20:05:22.520Z,0.70
2019-04-26T20:07:51.877Z,0.80
2019-04-26T20:10:20.579Z,0.60
2019-04-26T20:12:49.056Z,0.80
2019-04-26T20:15:26.066Z,0.80
2019-04-26T20:17:52.399Z,0.70
2019-04-26T20:20:21.447Z,0.60
2019-04-26T20:22:48.202Z,0.70
2019-04-26T20:25:16.694Z,0.47
2019-04-26T20:27:45.221Z,0.50
2019-04-26T20:30:18.226Z,0.50
2019-04-26T20:32:45.583Z,0.50
2019-04-26T20:35:19.912Z,0.40
2019-04-26T20:37:48.369Z,0.40
2019-04-26T20:40:22.170Z,0.50
2019-04-26T20:42:47.459Z,0.50
2019-04-26T20:45:17.017Z,0.43
2019-04-26T20:47:46.777Z,0.53
2019-04-26T20:50:16.415Z,0.40
2019-04-26T20:52:45.534Z,0.40
2019-04-26T20:55:14.314Z,0.60
2019-04-26T20:57:44.765Z,0.40
2019-04-26T21:00:14.108Z,0.50
2019-04-26T21:02:42.759Z,0.80
2019-04-26T21:05:14.681Z,0.50
2019-04-26T21:07:45.912Z,0.53
2019-04-26T21:10:14.623Z,0.40
2019-04-26T21:12:42.539Z,0.60
2019-04-26T21:15:11.662Z,0.60
2019-04-26T21:17:41.512Z,0.33
2019-04-26T21:20:10.964Z,0.20
2019-04-26T21:22:39.419Z,0.40
2019-04-26T21:25:12.684Z,0.40
2019-04-26T21:27:45.533Z,0.23
2019-04-26T21:30:15.968Z,0.30
2019-04-26T21:32:56.033Z,0.40
2019-04-26T21:35:29.831Z,0.40
2019-04-26T21:37:59.958Z,0.50
2019-04-26T21:40:36.401Z,0.40
2019-04-26T21:43:04.882Z,0.60
2019-04-26T21:45:34.013Z,0.30
2019-04-26T21:48:06.801Z,0.43
2019-04-26T21:50:35.779Z,0.33
2019-04-26T21:53:06.745Z,0.33
2019-04-26T21:55:38.354Z,0.40
2019-04-26T21:58:05.146Z,0.27
2019-04-26T22:00:41.571Z,0.23
2019-04-26T22:03:12.605Z,0.33
2019-04-26T22:05:43.971Z,0.50
2019-04-26T22:08:10.484Z,0.20
2019-04-26T22:10:44.538Z,0.30
2019-04-26T22:13:14.920Z,0.30
2019-04-26T22:16:03.472Z,0.30
2019-04-26T22:18:33.852Z,0.20
2019-04-26T22:21:03.938Z,0.30
2019-04-26T22:23:36.650Z,0.30
2019-04-26T22:26:08.550Z,0.23
2019-04-26T22:28:37.666Z,0.30
2019-04-26T22:31:08.449Z,0.30
2019-04-26T22:33:36.463Z,0.20
2019-04-26T22:36:05.323Z,0.20
2019-04-26T22:38:34.106Z,0.40
2019-04-26T22:41:03.205Z,0.30
2019-04-26T22:43:36.106Z,0.30
2019-04-26T22:46:06.325Z,0.50
2019-04-26T22:48:36.488Z,0.30
2019-04-26T22:51:05.348Z,0.30
2019-04-26T22:53:33.833Z,0.20
2019-04-26T22:56:04.599Z,0.30
2019-04-26T22:58:33.800Z,0.30
2019-04-26T23:01:03.537Z,0.30
2019-04-26T23:03:36.557Z,0.30
2019-04-26T23:06:03.748Z,0.30
2019-04-26T23:08:35.255Z,0.47
2019-04-26T23:11:09.246Z,0.40
2019-04-26T23:13:44.630Z,0.30
2019-04-26T23:16:21.184Z,0.37
2019-04-26T23:19:03.756Z,0.23
2019-04-26T23:21:35.792Z,0.43
2019-04-26T23:24:04.455Z,0.37
2019-04-26T23:26:33.454Z,0.33
2019-04-26T23:29:03.647Z,0.53
2019-04-26T23:31:33.466Z,0.40
2019-04-26T23:34:02.976Z,0.43
2019-04-26T23:36:31.992Z,0.40
2019-04-26T23:39:00.573Z,0.40
2019-04-26T23:41:29.072Z,0.50
2019-04-26T23:44:02.899Z,0.47
2019-04-26T23:46:27.766Z,0.37
2019-04-26T23:48:56.247Z,0.50
2019-04-26T23:51:26.225Z,0.50
2019-04-26T23:53:57.649Z,0.47
2019-04-26T23:56:25.453Z,0.50
2019-04-26T23:58:54.027Z,0.47
